PWSweather.com
Personal Weather Stations
Station Observations
KOHAVON11
Long Road Station, Avon, OH 44011

Long Road StationAvon, OH 44011

Lat: 41.437, Lon: -82.0477

Elevation: 686

Station Type: Davis Vantage Pro2

http://www.avon-weather.com

High Low Average
Temperature 59.3°F15.2°C 35.5°F1.9°C 45.6°F7.6°C
Dew Point 55.7°F13.2°C 26.6°F-3.0°C 41.7°F5.4°C
Winds 25.0 mph 40.2 kmh Calm Calm 4.0 mph ESE6.4 kmh ESE
Wind Gusts 28.0 mph45.1 kmh -- 9.0 mph14.5 kmh
Humidity 89% 70% 86%
Pressure 30.02 in1016.6 mb 29.37 in994.6 mb -
Precipitation 0.71 in18.0 mm - -
Hour Temp Dew Point Humidity Winds Wind Gusts Pressure Precip Precip Rate Daily Precip Total
12:00 AM 35.5°F1.9°C 26.6°F-3.0°C 70% Calm Calm 1.0 mph1.6 kmh 30.02 in1016.6 mb 0.00 in0.0 mm 0.00 in0.0 mm 0.00 in0.0 mm
12:05 AM 35.6°F2.0°C 26.7°F-2.9°C 70% Calm Calm -- 30.02 in1016.6 mb 0.00 in0.0 mm 0.00 in0.0 mm 0.00 in0.0 mm
12:10 AM 35.8°F2.1°C 27.2°F-2.7°C 71% 1.0 mph E1.6 kmh E 2.0 mph3.2 kmh 30.01 in1016.3 mb 0.00 in0.0 mm 0.00 in0.0 mm 0.00 in0.0 mm
12:15 AM 35.9°F2.2°C 27.3°F-2.6°C 71% 3.0 mph E4.8 kmh E 3.0 mph4.8 kmh 30.00 in1015.9 mb 0.00 in0.0 mm 0.00 in0.0 mm 0.00 in0.0 mm
12:20 AM 36.0°F2.2°C 27.4°F-2.6°C 71% Calm Calm -- 30.00 in1015.9 mb 0.00 in0.0 mm 0.00 in0.0 mm 0.00 in0.0 mm
12:25 AM 36.2°F2.3°C 27.6°F-2.4°C 71% Calm Calm -- 29.99 in1015.6 mb 0.00 in0.0 mm 0.00 in0.0 mm 0.00 in0.0 mm
12:30 AM 36.3°F2.4°C 27.7°F-2.4°C 71% Calm Calm -- 29.99 in1015.6 mb 0.00 in0.0 mm 0.00 in0.0 mm 0.00 in0.0 mm
12:35 AM 36.4°F2.4°C 27.8°F-2.3°C 71% Calm Calm -- 29.99 in1015.6 mb 0.00 in0.0 mm 0.00 in0.0 mm 0.00 in0.0 mm
12:40 AM 36.5°F2.5°C 28.2°F-2.1°C 72% Calm Calm -- 29.98 in1015.2 mb 0.00 in0.0 mm 0.00 in0.0 mm 0.00 in0.0 mm
12:45 AM 36.6°F2.6°C 28.3°F-2.1°C 72% Calm Calm -- 29.98 in1015.2 mb 0.00 in0.0 mm 0.00 in0.0 mm 0.00 in0.0 mm
12:50 AM 36.7°F2.6°C 28.4°F-2.0°C 72% Calm Calm -- 29.98 in1015.2 mb 0.00 in0.0 mm 0.00 in0.0 mm 0.00 in0.0 mm
12:55 AM 36.7°F2.6°C 28.4°F-2.0°C 72% Calm Calm -- 29.97 in1014.9 mb 0.00 in0.0 mm 0.00 in0.0 mm 0.00 in0.0 mm
01:00 AM 36.9°F2.7°C 28.6°F-1.9°C 72% Calm Calm -- 29.98 in1015.2 mb 0.00 in0.0 mm 0.00 in0.0 mm 0.00 in0.0 mm
01:05 AM 37.0°F2.8°C 28.7°F-1.8°C 72% Calm Calm -- 29.97 in1014.9 mb 0.00 in0.0 mm 0.00 in0.0 mm 0.00 in0.0 mm
01:10 AM 37.1°F2.8°C 28.8°F-1.8°C 72% Calm Calm -- 29.98 in1015.2 mb 0.00 in0.0 mm 0.00 in0.0 mm 0.00 in0.0 mm
01:15 AM 37.3°F2.9°C 29.4°F-1.4°C 73% Calm Calm -- 29.97 in1014.9 mb 0.00 in0.0 mm 0.00 in0.0 mm 0.00 in0.0 mm
01:20 AM 37.4°F3.0°C 29.4°F-1.4°C 73% Calm Calm -- 29.97 in1014.9 mb 0.00 in0.0 mm 0.00 in0.0 mm 0.00 in0.0 mm
01:25 AM 37.5°F3.1°C 29.5°F-1.4°C 73% Calm Calm -- 29.96 in1014.6 mb 0.00 in0.0 mm 0.00 in0.0 mm 0.00 in0.0 mm
01:30 AM 37.7°F3.2°C 30.1°F-1.1°C 74% Calm Calm -- 29.96 in1014.6 mb 0.00 in0.0 mm 0.00 in0.0 mm 0.00 in0.0 mm
01:35 AM 37.8°F3.2°C 30.5°F-0.8°C 75% Calm Calm -- 29.96 in1014.6 mb 0.00 in0.0 mm 0.00 in0.0 mm 0.00 in0.0 mm
01:40 AM 37.8°F3.2°C 30.8°F-0.7°C 76% Calm Calm -- 29.96 in1014.6 mb 0.00 in0.0 mm 0.00 in0.0 mm 0.00 in0.0 mm
01:45 AM 37.8°F3.2°C 31.2°F-0.4°C 77% Calm Calm -- 29.95 in1014.2 mb 0.00 in0.0 mm 0.00 in0.0 mm 0.00 in0.0 mm
01:50 AM 37.8°F3.2°C 31.5°F-0.3°C 78% Calm Calm -- 29.95 in1014.2 mb 0.00 in0.0 mm 0.00 in0.0 mm 0.00 in0.0 mm
01:55 AM 37.8°F3.2°C 31.8°F-0.1°C 79% Calm Calm -- 29.94 in1013.9 mb 0.00 in0.0 mm 0.00 in0.0 mm 0.00 in0.0 mm
02:00 AM 37.9°F3.3°C 32.2°F0.1°C 80% Calm Calm -- 29.94 in1013.9 mb 0.00 in0.0 mm 0.00 in0.0 mm 0.00 in0.0 mm
02:05 AM 38.0°F3.3°C 32.3°F0.2°C 80% Calm Calm -- 29.94 in1013.9 mb 0.00 in0.0 mm 0.00 in0.0 mm 0.00 in0.0 mm
02:10 AM 38.0°F3.3°C 32.7°F0.4°C 81% Calm Calm -- 29.95 in1014.2 mb 0.00 in0.0 mm 0.00 in0.0 mm 0.00 in0.0 mm
02:15 AM 38.0°F3.3°C 32.7°F0.4°C 81% Calm Calm -- 29.95 in1014.2 mb 0.00 in0.0 mm 0.00 in0.0 mm 0.01 in0.3 mm
02:20 AM 37.9°F3.3°C 32.6°F0.3°C 81% Calm Calm -- 29.95 in1014.2 mb 0.00 in0.0 mm 0.00 in0.0 mm 0.01 in0.3 mm
02:25 AM 38.0°F3.3°C 33.0°F0.6°C 82% Calm Calm -- 29.94 in1013.9 mb 0.00 in0.0 mm 0.00 in0.0 mm 0.01 in0.3 mm
02:30 AM 38.0°F3.3°C 33.0°F0.6°C 82% Calm Calm -- 29.94 in1013.9 mb 0.00 in0.0 mm 0.00 in0.0 mm 0.01 in0.3 mm
02:35 AM 38.1°F3.4°C 33.4°F0.8°C 83% Calm Calm -- 29.93 in1013.5 mb 0.00 in0.0 mm 0.00 in0.0 mm 0.01 in0.3 mm
02:40 AM 38.1°F3.4°C 33.4°F0.8°C 83% Calm Calm -- 29.93 in1013.5 mb 0.00 in0.0 mm 0.00 in0.0 mm 0.01 in0.3 mm
02:45 AM 38.1°F3.4°C 33.7°F0.9°C 84% Calm Calm -- 29.92 in1013.2 mb 0.00 in0.0 mm 0.00 in0.0 mm 0.01 in0.3 mm
02:50 AM 38.1°F3.4°C 33.7°F0.9°C 84% Calm Calm -- 29.91 in1012.9 mb 0.00 in0.0 mm 0.00 in0.0 mm 0.01 in0.3 mm
02:55 AM 38.1°F3.4°C 34.0°F1.1°C 85% Calm Calm -- 29.91 in1012.9 mb 0.00 in0.0 mm 0.00 in0.0 mm 0.01 in0.3 mm
03:00 AM 38.1°F3.4°C 34.0°F1.1°C 85% Calm Calm -- 29.91 in1012.9 mb 0.00 in0.0 mm 0.00 in0.0 mm 0.01 in0.3 mm
03:05 AM 38.1°F3.4°C 34.0°F1.1°C 85% Calm Calm -- 29.91 in1012.9 mb 0.00 in0.0 mm 0.00 in0.0 mm 0.02 in0.5 mm
03:10 AM 38.2°F3.4°C 34.4°F1.3°C 86% Calm Calm -- 29.91 in1012.9 mb 0.00 in0.0 mm 0.00 in0.0 mm 0.02 in0.5 mm
03:15 AM 38.2°F3.4°C 34.4°F1.3°C 86% Calm Calm -- 29.91 in1012.9 mb 0.00 in0.0 mm 0.00 in0.0 mm 0.02 in0.5 mm
03:20 AM 38.3°F3.5°C 34.5°F1.4°C 86% Calm Calm -- 29.90 in1012.5 mb 0.04 in1.0 mm 0.48 in12.2 mm 0.02 in0.5 mm
03:25 AM 38.3°F3.5°C 34.5°F1.4°C 86% Calm Calm 1.0 mph1.6 kmh 29.89 in1012.2 mb 0.04 in1.0 mm 0.00 in0.0 mm 0.03 in0.8 mm
03:30 AM 38.2°F3.4°C 34.4°F1.3°C 86% 2.0 mph E3.2 kmh E 3.0 mph4.8 kmh 29.90 in1012.5 mb 0.08 in2.0 mm 0.48 in12.2 mm 0.04 in1.0 mm
03:35 AM 38.2°F3.4°C 34.4°F1.3°C 86% Calm Calm -- 29.91 in1012.9 mb 0.15 in3.8 mm 0.84 in21.3 mm 0.05 in1.3 mm
03:40 AM 38.2°F3.4°C 34.4°F1.3°C 86% Calm Calm -- 29.90 in1012.5 mb 0.22 in5.6 mm 0.84 in21.3 mm 0.07 in1.8 mm
03:45 AM 38.2°F3.4°C 34.4°F1.3°C 86% Calm Calm 2.0 mph3.2 kmh 29.90 in1012.5 mb 0.32 in8.1 mm 1.20 in30.5 mm 0.08 in2.0 mm
03:50 AM 38.2°F3.4°C 34.7°F1.5°C 87% 2.0 mph SE3.2 kmh SE 2.0 mph3.2 kmh 29.91 in1012.9 mb 0.11 in2.8 mm 0.00 in0.0 mm 0.09 in2.3 mm
03:55 AM 38.1°F3.4°C 34.6°F1.4°C 87% 1.0 mph SE1.6 kmh SE 3.0 mph4.8 kmh 29.91 in1012.9 mb 0.11 in2.8 mm 0.00 in0.0 mm 0.10 in2.5 mm
04:00 AM 38.2°F3.4°C 34.7°F1.5°C 87% 1.0 mph E1.6 kmh E 3.0 mph4.8 kmh 29.90 in1012.5 mb 0.06 in1.5 mm 0.00 in0.0 mm 0.10 in2.5 mm
04:05 AM 38.2°F3.4°C 34.7°F1.5°C 87% Calm Calm 3.0 mph4.8 kmh 29.90 in1012.5 mb 0.04 in1.0 mm 0.00 in0.0 mm 0.10 in2.5 mm
04:10 AM 38.1°F3.4°C 34.6°F1.4°C 87% 1.0 mph SE1.6 kmh SE 3.0 mph4.8 kmh 29.90 in1012.5 mb 0.00 in0.0 mm 0.00 in0.0 mm 0.10 in2.5 mm
04:15 AM 38.1°F3.4°C 34.6°F1.4°C 87% Calm Calm 3.0 mph4.8 kmh 29.89 in1012.2 mb 0.00 in0.0 mm 0.00 in0.0 mm 0.11 in2.8 mm
04:20 AM 38.1°F3.4°C 34.6°F1.4°C 87% 1.0 mph E1.6 kmh E 2.0 mph3.2 kmh 29.89 in1012.2 mb 0.00 in0.0 mm 0.00 in0.0 mm 0.11 in2.8 mm
04:25 AM 38.2°F3.4°C 34.7°F1.5°C 87% Calm Calm 1.0 mph1.6 kmh 29.89 in1012.2 mb 0.00 in0.0 mm 0.00 in0.0 mm 0.11 in2.8 mm
04:30 AM 38.2°F3.4°C 34.7°F1.5°C 87% Calm Calm 3.0 mph4.8 kmh 29.89 in1012.2 mb 0.00 in0.0 mm 0.00 in0.0 mm 0.11 in2.8 mm
04:35 AM 38.2°F3.4°C 34.7°F1.5°C 87% Calm Calm 3.0 mph4.8 kmh 29.88 in1011.9 mb 0.00 in0.0 mm 0.00 in0.0 mm 0.11 in2.8 mm
04:40 AM 38.2°F3.4°C 35.0°F1.7°C 88% Calm Calm 4.0 mph6.4 kmh 29.88 in1011.9 mb 0.00 in0.0 mm 0.00 in0.0 mm 0.11 in2.8 mm
04:45 AM 38.2°F3.4°C 35.0°F1.7°C 88% Calm Calm 4.0 mph6.4 kmh 29.88 in1011.9 mb 0.00 in0.0 mm 0.00 in0.0 mm 0.11 in2.8 mm
04:50 AM 38.2°F3.4°C 35.0°F1.7°C 88% Calm Calm -- 29.89 in1012.2 mb 0.00 in0.0 mm 0.00 in0.0 mm 0.11 in2.8 mm
04:55 AM 38.2°F3.4°C 35.0°F1.7°C 88% 2.0 mph ENE3.2 kmh ENE 2.0 mph3.2 kmh 29.88 in1011.9 mb 0.00 in0.0 mm 0.00 in0.0 mm 0.11 in2.8 mm
05:00 AM 38.2°F3.4°C 35.0°F1.7°C 88% Calm Calm 1.0 mph1.6 kmh 29.87 in1011.5 mb 0.00 in0.0 mm 0.00 in0.0 mm 0.11 in2.8 mm
05:05 AM 38.3°F3.5°C 35.1°F1.7°C 88% Calm Calm 2.0 mph3.2 kmh 29.88 in1011.9 mb 0.00 in0.0 mm 0.00 in0.0 mm 0.11 in2.8 mm
05:10 AM 38.3°F3.5°C 35.1°F1.7°C 88% 1.0 mph ESE1.6 kmh ESE 5.0 mph8.0 kmh 29.87 in1011.5 mb 0.00 in0.0 mm 0.00 in0.0 mm 0.11 in2.8 mm
05:15 AM 38.3°F3.5°C 35.1°F1.7°C 88% Calm Calm 2.0 mph3.2 kmh 29.87 in1011.5 mb 0.00 in0.0 mm 0.00 in0.0 mm 0.11 in2.8 mm
05:20 AM 38.4°F3.6°C 35.2°F1.8°C 88% Calm Calm 3.0 mph4.8 kmh 29.88 in1011.9 mb 0.00 in0.0 mm 0.00 in0.0 mm 0.11 in2.8 mm
05:25 AM 38.4°F3.6°C 35.2°F1.8°C 88% Calm Calm -- 29.88 in1011.9 mb 0.00 in0.0 mm 0.00 in0.0 mm 0.11 in2.8 mm
05:30 AM 38.4°F3.6°C 35.2°F1.8°C 88% Calm Calm -- 29.89 in1012.2 mb 0.00 in0.0 mm 0.00 in0.0 mm 0.11 in2.8 mm
05:35 AM 38.4°F3.6°C 35.2°F1.8°C 88% Calm Calm -- 29.89 in1012.2 mb 0.00 in0.0 mm 0.00 in0.0 mm 0.11 in2.8 mm
05:40 AM 38.4°F3.6°C 35.2°F1.8°C 88% Calm Calm -- 29.88 in1011.9 mb 0.00 in0.0 mm 0.00 in0.0 mm 0.12 in3.0 mm
05:45 AM 38.5°F3.6°C 35.3°F1.8°C 88% 2.0 mph ENE3.2 kmh ENE 3.0 mph4.8 kmh 29.86 in1011.2 mb 0.14 in3.6 mm 1.68 in42.7 mm 0.13 in3.3 mm
05:50 AM 38.5°F3.6°C 35.3°F1.8°C 88% Calm Calm 5.0 mph8.0 kmh 29.86 in1011.2 mb 0.06 in1.5 mm 0.00 in0.0 mm 0.13 in3.3 mm
05:55 AM 38.5°F3.6°C 35.3°F1.8°C 88% Calm Calm -- 29.87 in1011.5 mb 0.04 in1.0 mm 0.00 in0.0 mm 0.13 in3.3 mm
06:00 AM 38.5°F3.6°C 35.3°F1.8°C 88% 2.0 mph E3.2 kmh E 3.0 mph4.8 kmh 29.87 in1011.5 mb 0.00 in0.0 mm 0.00 in0.0 mm 0.14 in3.6 mm
06:05 AM 38.5°F3.6°C 35.3°F1.8°C 88% Calm Calm 3.0 mph4.8 kmh 29.87 in1011.5 mb 0.00 in0.0 mm 0.00 in0.0 mm 0.14 in3.6 mm
06:10 AM 38.5°F3.6°C 35.3°F1.8°C 88% Calm Calm 1.0 mph1.6 kmh 29.87 in1011.5 mb 0.00 in0.0 mm 0.00 in0.0 mm 0.14 in3.6 mm
06:15 AM 38.5°F3.6°C 35.3°F1.8°C 88% Calm Calm 1.0 mph1.6 kmh 29.86 in1011.2 mb 0.00 in0.0 mm 0.00 in0.0 mm 0.14 in3.6 mm
06:20 AM 38.5°F3.6°C 35.3°F1.8°C 88% Calm Calm 2.0 mph3.2 kmh 29.86 in1011.2 mb 0.00 in0.0 mm 0.00 in0.0 mm 0.14 in3.6 mm
06:25 AM 38.5°F3.6°C 35.3°F1.8°C 88% Calm Calm 2.0 mph3.2 kmh 29.87 in1011.5 mb 0.11 in2.8 mm 1.32 in33.5 mm 0.15 in3.8 mm
06:30 AM 38.5°F3.6°C 35.3°F1.8°C 88% Calm Calm -- 29.86 in1011.2 mb 0.11 in2.8 mm 0.00 in0.0 mm 0.16 in4.1 mm
06:35 AM 38.5°F3.6°C 35.3°F1.8°C 88% Calm Calm -- 29.86 in1011.2 mb 0.09 in2.3 mm 0.00 in0.0 mm 0.17 in4.3 mm
06:40 AM 38.5°F3.6°C 35.3°F1.8°C 88% 2.0 mph E3.2 kmh E 3.0 mph4.8 kmh 29.85 in1010.8 mb 0.07 in1.8 mm 0.00 in0.0 mm 0.17 in4.3 mm
06:45 AM 38.6°F3.7°C 35.4°F1.9°C 88% Calm Calm 5.0 mph8.0 kmh 29.85 in1010.8 mb 0.05 in1.3 mm 0.00 in0.0 mm 0.17 in4.3 mm
06:50 AM 38.6°F3.7°C 35.7°F2.1°C 89% Calm Calm 5.0 mph8.0 kmh 29.85 in1010.8 mb 0.00 in0.0 mm 0.00 in0.0 mm 0.17 in4.3 mm
06:55 AM 38.7°F3.7°C 35.5°F1.9°C 88% Calm Calm 5.0 mph8.0 kmh 29.85 in1010.8 mb 0.00 in0.0 mm 0.00 in0.0 mm 0.17 in4.3 mm
07:00 AM 38.7°F3.7°C 35.5°F1.9°C 88% Calm Calm -- 29.86 in1011.2 mb 0.00 in0.0 mm 0.00 in0.0 mm 0.17 in4.3 mm
07:05 AM 38.8°F3.8°C 35.6°F2.0°C 88% Calm Calm -- 29.86 in1011.2 mb 0.00 in0.0 mm 0.00 in0.0 mm 0.17 in4.3 mm
07:10 AM 38.8°F3.8°C 35.9°F2.2°C 89% Calm Calm -- 29.85 in1010.8 mb 0.00 in0.0 mm 0.00 in0.0 mm 0.17 in4.3 mm
07:15 AM 38.8°F3.8°C 35.9°F2.2°C 89% Calm Calm -- 29.85 in1010.8 mb 0.00 in0.0 mm 0.00 in0.0 mm 0.17 in4.3 mm
07:20 AM 38.9°F3.8°C 36.0°F2.2°C 89% Calm Calm -- 29.86 in1011.2 mb 0.00 in0.0 mm 0.00 in0.0 mm 0.17 in4.3 mm
07:25 AM 38.9°F3.8°C 36.0°F2.2°C 89% Calm Calm -- 29.86 in1011.2 mb 0.00 in0.0 mm 0.00 in0.0 mm 0.18 in4.6 mm
07:30 AM 38.9°F3.8°C 36.0°F2.2°C 89% Calm Calm -- 29.86 in1011.2 mb 0.17 in4.3 mm 2.04 in51.8 mm 0.19 in4.8 mm
07:35 AM 39.0°F3.9°C 36.1°F2.3°C 89% Calm Calm -- 29.86 in1011.2 mb 0.10 in2.5 mm 0.00 in0.0 mm 0.20 in5.1 mm
07:40 AM 39.1°F3.9°C 36.2°F2.3°C 89% Calm Calm -- 29.86 in1011.2 mb 0.11 in2.8 mm 0.12 in3.0 mm 0.21 in5.3 mm
07:45 AM 39.1°F3.9°C 36.2°F2.3°C 89% Calm Calm -- 29.85 in1010.8 mb 0.10 in2.5 mm 0.00 in0.0 mm 0.21 in5.3 mm
07:50 AM 39.2°F4.0°C 36.3°F2.4°C 89% 2.0 mph E3.2 kmh E 4.0 mph6.4 kmh 29.84 in1010.5 mb 0.09 in2.3 mm 0.00 in0.0 mm 0.22 in5.6 mm
07:55 AM 39.3°F4.1°C 36.4°F2.4°C 89% Calm Calm -- 29.84 in1010.5 mb 0.07 in1.8 mm 0.00 in0.0 mm 0.22 in5.6 mm
08:00 AM 39.3°F4.1°C 36.4°F2.4°C 89% Calm Calm -- 29.84 in1010.5 mb 0.04 in1.0 mm 0.00 in0.0 mm 0.22 in5.6 mm
08:05 AM 39.4°F4.1°C 36.4°F2.4°C 89% Calm Calm -- 29.84 in1010.5 mb 0.00 in0.0 mm 0.00 in0.0 mm 0.23 in5.8 mm
08:10 AM 39.5°F4.2°C 36.5°F2.5°C 89% Calm Calm -- 29.83 in1010.2 mb 0.00 in0.0 mm 0.00 in0.0 mm 0.23 in5.8 mm
08:15 AM 39.6°F4.2°C 36.6°F2.6°C 89% Calm Calm -- 29.82 in1009.8 mb 0.00 in0.0 mm 0.00 in0.0 mm 0.23 in5.8 mm
08:20 AM 39.7°F4.3°C 36.7°F2.6°C 89% Calm Calm -- 29.82 in1009.8 mb 0.00 in0.0 mm 0.00 in0.0 mm 0.23 in5.8 mm
08:25 AM 39.8°F4.3°C 36.8°F2.7°C 89% Calm Calm -- 29.82 in1009.8 mb 0.00 in0.0 mm 0.00 in0.0 mm 0.23 in5.8 mm
08:30 AM 39.8°F4.3°C 36.8°F2.7°C 89% 2.0 mph E3.2 kmh E 3.0 mph4.8 kmh 29.81 in1009.5 mb 0.00 in0.0 mm 0.00 in0.0 mm 0.23 in5.8 mm
08:35 AM 40.0°F4.4°C 37.0°F2.8°C 89% 2.0 mph E3.2 kmh E 3.0 mph4.8 kmh 29.81 in1009.5 mb 0.00 in0.0 mm 0.00 in0.0 mm 0.23 in5.8 mm
08:40 AM 40.1°F4.5°C 37.1°F2.8°C 89% Calm Calm -- 29.82 in1009.8 mb 0.00 in0.0 mm 0.00 in0.0 mm 0.24 in6.1 mm
08:45 AM 40.1°F4.5°C 37.1°F2.8°C 89% Calm Calm -- 29.82 in1009.8 mb 0.00 in0.0 mm 0.00 in0.0 mm 0.24 in6.1 mm
08:50 AM 40.2°F4.6°C 37.2°F2.9°C 89% Calm Calm -- 29.82 in1009.8 mb 0.00 in0.0 mm 0.00 in0.0 mm 0.24 in6.1 mm
08:55 AM 40.3°F4.6°C 37.3°F2.9°C 89% Calm Calm -- 29.82 in1009.8 mb 0.00 in0.0 mm 0.00 in0.0 mm 0.24 in6.1 mm
09:00 AM 40.4°F4.7°C 37.4°F3.0°C 89% Calm Calm -- 29.82 in1009.8 mb 0.00 in0.0 mm 0.00 in0.0 mm 0.24 in6.1 mm
09:05 AM 40.5°F4.7°C 37.5°F3.1°C 89% Calm Calm -- 29.82 in1009.8 mb 0.00 in0.0 mm 0.00 in0.0 mm 0.24 in6.1 mm
09:10 AM 40.5°F4.7°C 37.5°F3.1°C 89% Calm Calm -- 29.82 in1009.8 mb 0.00 in0.0 mm 0.00 in0.0 mm 0.24 in6.1 mm
09:15 AM 40.5°F4.7°C 37.5°F3.1°C 89% Calm Calm -- 29.82 in1009.8 mb 0.00 in0.0 mm 0.00 in0.0 mm 0.24 in6.1 mm
09:20 AM 40.6°F4.8°C 37.6°F3.1°C 89% Calm Calm -- 29.82 in1009.8 mb 0.00 in0.0 mm 0.00 in0.0 mm 0.24 in6.1 mm
09:25 AM 40.6°F4.8°C 37.6°F3.1°C 89% Calm Calm -- 29.82 in1009.8 mb 0.00 in0.0 mm 0.00 in0.0 mm 0.24 in6.1 mm
09:30 AM 40.5°F4.7°C 37.5°F3.1°C 89% Calm Calm 2.0 mph3.2 kmh 29.83 in1010.2 mb 0.00 in0.0 mm 0.00 in0.0 mm 0.24 in6.1 mm
09:35 AM 40.4°F4.7°C 37.4°F3.0°C 89% Calm Calm -- 29.83 in1010.2 mb 0.00 in0.0 mm 0.00 in0.0 mm 0.24 in6.1 mm
09:40 AM 40.3°F4.6°C 37.3°F2.9°C 89% 3.0 mph NE4.8 kmh NE 3.0 mph4.8 kmh 29.83 in1010.2 mb 0.00 in0.0 mm 0.00 in0.0 mm 0.24 in6.1 mm
09:45 AM 40.2°F4.6°C 37.2°F2.9°C 89% 1.0 mph NE1.6 kmh NE 5.0 mph8.0 kmh 29.82 in1009.8 mb 0.00 in0.0 mm 0.00 in0.0 mm 0.24 in6.1 mm
09:50 AM 40.2°F4.6°C 37.2°F2.9°C 89% 4.0 mph NE6.4 kmh NE 7.0 mph11.3 kmh 29.81 in1009.5 mb 0.00 in0.0 mm 0.00 in0.0 mm 0.24 in6.1 mm
09:55 AM 40.0°F4.4°C 37.0°F2.8°C 89% 1.0 mph ENE1.6 kmh ENE 7.0 mph11.3 kmh 29.81 in1009.5 mb 0.00 in0.0 mm 0.00 in0.0 mm 0.24 in6.1 mm
10:00 AM 40.0°F4.4°C 37.0°F2.8°C 89% 4.0 mph NE6.4 kmh NE 7.0 mph11.3 kmh 29.81 in1009.5 mb 0.00 in0.0 mm 0.00 in0.0 mm 0.24 in6.1 mm
10:05 AM 39.9°F4.4°C 36.9°F2.7°C 89% 2.0 mph NE3.2 kmh NE 8.0 mph12.9 kmh 29.80 in1009.1 mb 0.00 in0.0 mm 0.00 in0.0 mm 0.24 in6.1 mm
10:10 AM 40.0°F4.4°C 37.0°F2.8°C 89% 2.0 mph ENE3.2 kmh ENE 8.0 mph12.9 kmh 29.80 in1009.1 mb 0.00 in0.0 mm 0.00 in0.0 mm 0.24 in6.1 mm
10:15 AM 40.0°F4.4°C 37.0°F2.8°C 89% 4.0 mph NE6.4 kmh NE 8.0 mph12.9 kmh 29.80 in1009.1 mb 0.00 in0.0 mm 0.00 in0.0 mm 0.24 in6.1 mm
10:20 AM 40.1°F4.5°C 37.1°F2.8°C 89% 8.0 mph ENE12.9 kmh ENE 8.0 mph12.9 kmh 29.78 in1008.5 mb 0.00 in0.0 mm 0.00 in0.0 mm 0.24 in6.1 mm
10:25 AM 40.4°F4.7°C 37.4°F3.0°C 89% 1.0 mph NE1.6 kmh NE 9.0 mph14.5 kmh 29.78 in1008.5 mb 0.00 in0.0 mm 0.00 in0.0 mm 0.24 in6.1 mm
10:30 AM 40.5°F4.7°C 37.5°F3.1°C 89% 2.0 mph NE3.2 kmh NE 9.0 mph14.5 kmh 29.79 in1008.8 mb 0.00 in0.0 mm 0.00 in0.0 mm 0.24 in6.1 mm
10:35 AM 40.5°F4.7°C 37.5°F3.1°C 89% 5.0 mph ENE8.0 kmh ENE 9.0 mph14.5 kmh 29.79 in1008.8 mb 0.00 in0.0 mm 0.00 in0.0 mm 0.24 in6.1 mm
10:40 AM 40.5°F4.7°C 37.5°F3.1°C 89% 2.0 mph ENE3.2 kmh ENE 9.0 mph14.5 kmh 29.79 in1008.8 mb 0.00 in0.0 mm 0.00 in0.0 mm 0.24 in6.1 mm
10:45 AM 40.5°F4.7°C 37.5°F3.1°C 89% 1.0 mph ENE1.6 kmh ENE 8.0 mph12.9 kmh 29.79 in1008.8 mb 0.00 in0.0 mm 0.00 in0.0 mm 0.24 in6.1 mm
10:50 AM 40.5°F4.7°C 37.5°F3.1°C 89% 2.0 mph NE3.2 kmh NE 8.0 mph12.9 kmh 29.79 in1008.8 mb 0.00 in0.0 mm 0.00 in0.0 mm 0.24 in6.1 mm
10:55 AM 40.5°F4.7°C 37.5°F3.1°C 89% 2.0 mph ENE3.2 kmh ENE 6.0 mph9.7 kmh 29.79 in1008.8 mb 0.00 in0.0 mm 0.00 in0.0 mm 0.24 in6.1 mm
11:00 AM 40.4°F4.7°C 37.4°F3.0°C 89% 3.0 mph ENE4.8 kmh ENE 6.0 mph9.7 kmh 29.79 in1008.8 mb 0.00 in0.0 mm 0.00 in0.0 mm 0.24 in6.1 mm
11:05 AM 40.5°F4.7°C 37.5°F3.1°C 89% 3.0 mph ENE4.8 kmh ENE 5.0 mph8.0 kmh 29.78 in1008.5 mb 0.00 in0.0 mm 0.00 in0.0 mm 0.24 in6.1 mm
11:10 AM 40.7°F4.8°C 37.7°F3.2°C 89% 3.0 mph E4.8 kmh E 5.0 mph8.0 kmh 29.79 in1008.8 mb 0.00 in0.0 mm 0.00 in0.0 mm 0.24 in6.1 mm
11:15 AM 40.6°F4.8°C 37.6°F3.1°C 89% 3.0 mph ENE4.8 kmh ENE 5.0 mph8.0 kmh 29.79 in1008.8 mb 0.00 in0.0 mm 0.00 in0.0 mm 0.24 in6.1 mm
11:20 AM 40.7°F4.8°C 37.7°F3.2°C 89% 1.0 mph ENE1.6 kmh ENE 5.0 mph8.0 kmh 29.79 in1008.8 mb 0.00 in0.0 mm 0.00 in0.0 mm 0.24 in6.1 mm
11:25 AM 40.7°F4.8°C 37.7°F3.2°C 89% 2.0 mph ENE3.2 kmh ENE 5.0 mph8.0 kmh 29.79 in1008.8 mb 0.00 in0.0 mm 0.00 in0.0 mm 0.24 in6.1 mm
11:30 AM 40.7°F4.8°C 37.7°F3.2°C 89% Calm Calm 3.0 mph4.8 kmh 29.79 in1008.8 mb 0.00 in0.0 mm 0.00 in0.0 mm 0.24 in6.1 mm
11:35 AM 40.9°F4.9°C 37.9°F3.3°C 89% Calm Calm -- 29.79 in1008.8 mb 0.00 in0.0 mm 0.00 in0.0 mm 0.24 in6.1 mm
11:40 AM 40.9°F4.9°C 37.9°F3.3°C 89% Calm Calm -- 29.79 in1008.8 mb 0.00 in0.0 mm 0.00 in0.0 mm 0.24 in6.1 mm
11:45 AM 40.9°F4.9°C 37.9°F3.3°C 89% Calm Calm -- 29.79 in1008.8 mb 0.00 in0.0 mm 0.00 in0.0 mm 0.24 in6.1 mm
11:50 AM 41.0°F5.0°C 38.0°F3.3°C 89% Calm Calm -- 29.79 in1008.8 mb 0.00 in0.0 mm 0.00 in0.0 mm 0.24 in6.1 mm
11:55 AM 41.0°F5.0°C 38.0°F3.3°C 89% Calm Calm -- 29.78 in1008.5 mb 0.00 in0.0 mm 0.00 in0.0 mm 0.24 in6.1 mm
12:00 PM 41.0°F5.0°C 38.0°F3.3°C 89% Calm Calm -- 29.78 in1008.5 mb 0.00 in0.0 mm 0.00 in0.0 mm 0.24 in6.1 mm
12:05 PM 41.2°F5.1°C 38.2°F3.4°C 89% Calm Calm -- 29.78 in1008.5 mb 0.00 in0.0 mm 0.00 in0.0 mm 0.24 in6.1 mm
12:10 PM 41.3°F5.2°C 38.3°F3.5°C 89% Calm Calm -- 29.77 in1008.1 mb 0.00 in0.0 mm 0.00 in0.0 mm 0.24 in6.1 mm
12:15 PM 41.7°F5.4°C 38.7°F3.7°C 89% Calm Calm -- 29.77 in1008.1 mb 0.00 in0.0 mm 0.00 in0.0 mm 0.24 in6.1 mm
12:20 PM 41.6°F5.3°C 38.6°F3.7°C 89% Calm Calm -- 29.77 in1008.1 mb 0.00 in0.0 mm 0.00 in0.0 mm 0.24 in6.1 mm
12:25 PM 41.6°F5.3°C 38.6°F3.7°C 89% Calm Calm -- 29.75 in1007.5 mb 0.00 in0.0 mm 0.00 in0.0 mm 0.24 in6.1 mm
12:30 PM 41.5°F5.3°C 38.5°F3.6°C 89% Calm Calm -- 29.75 in1007.5 mb 0.00 in0.0 mm 0.00 in0.0 mm 0.24 in6.1 mm
12:35 PM 41.7°F5.4°C 38.7°F3.7°C 89% 3.0 mph E4.8 kmh E 4.0 mph6.4 kmh 29.73 in1006.8 mb 0.00 in0.0 mm 0.00 in0.0 mm 0.24 in6.1 mm
12:40 PM 41.8°F5.4°C 38.8°F3.8°C 89% 2.0 mph E3.2 kmh E 5.0 mph8.0 kmh 29.72 in1006.4 mb 0.00 in0.0 mm 0.00 in0.0 mm 0.24 in6.1 mm
12:45 PM 41.8°F5.4°C 38.8°F3.8°C 89% 4.0 mph ENE6.4 kmh ENE 5.0 mph8.0 kmh 29.72 in1006.4 mb 0.00 in0.0 mm 0.00 in0.0 mm 0.24 in6.1 mm
12:50 PM 42.1°F5.6°C 39.1°F3.9°C 89% 2.0 mph ENE3.2 kmh ENE 5.0 mph8.0 kmh 29.71 in1006.1 mb 0.00 in0.0 mm 0.00 in0.0 mm 0.24 in6.1 mm
12:55 PM 42.2°F5.7°C 39.2°F4.0°C 89% 1.0 mph E1.6 kmh E 5.0 mph8.0 kmh 29.71 in1006.1 mb 0.00 in0.0 mm 0.00 in0.0 mm 0.24 in6.1 mm
01:00 PM 42.5°F5.8°C 39.5°F4.2°C 89% 2.0 mph E3.2 kmh E 5.0 mph8.0 kmh 29.71 in1006.1 mb 0.00 in0.0 mm 0.00 in0.0 mm 0.24 in6.1 mm
01:05 PM 42.9°F6.1°C 39.9°F4.4°C 89% 3.0 mph ENE4.8 kmh ENE 5.0 mph8.0 kmh 29.70 in1005.8 mb 0.00 in0.0 mm 0.00 in0.0 mm 0.24 in6.1 mm
01:10 PM 43.1°F6.2°C 40.1°F4.5°C 89% 3.0 mph E4.8 kmh E 5.0 mph8.0 kmh 29.71 in1006.1 mb 0.00 in0.0 mm 0.00 in0.0 mm 0.24 in6.1 mm
01:15 PM 43.4°F6.3°C 40.4°F4.7°C 89% 3.0 mph E4.8 kmh E 5.0 mph8.0 kmh 29.71 in1006.1 mb 0.00 in0.0 mm 0.00 in0.0 mm 0.24 in6.1 mm
01:20 PM 43.6°F6.4°C 40.6°F4.8°C 89% 1.0 mph ESE1.6 kmh ESE 5.0 mph8.0 kmh 29.71 in1006.1 mb 0.00 in0.0 mm 0.00 in0.0 mm 0.24 in6.1 mm
01:25 PM 43.7°F6.5°C 40.7°F4.8°C 89% Calm Calm -- 29.71 in1006.1 mb 0.00 in0.0 mm 0.00 in0.0 mm 0.24 in6.1 mm
01:30 PM 43.8°F6.6°C 40.8°F4.9°C 89% Calm Calm -- 29.70 in1005.8 mb 0.00 in0.0 mm 0.00 in0.0 mm 0.24 in6.1 mm
01:35 PM 43.9°F6.6°C 40.9°F4.9°C 89% Calm Calm -- 29.69 in1005.4 mb 0.00 in0.0 mm 0.00 in0.0 mm 0.24 in6.1 mm
01:40 PM 43.9°F6.6°C 40.9°F4.9°C 89% Calm Calm -- 29.69 in1005.4 mb 0.00 in0.0 mm 0.00 in0.0 mm 0.24 in6.1 mm
01:45 PM 44.1°F6.7°C 41.1°F5.1°C 89% Calm Calm -- 29.70 in1005.8 mb 0.00 in0.0 mm 0.00 in0.0 mm 0.24 in6.1 mm
01:50 PM 44.3°F6.8°C 41.3°F5.2°C 89% Calm Calm -- 29.71 in1006.1 mb 0.00 in0.0 mm 0.00 in0.0 mm 0.24 in6.1 mm
01:55 PM 44.4°F6.9°C 41.4°F5.2°C 89% Calm Calm -- 29.70 in1005.8 mb 0.00 in0.0 mm 0.00 in0.0 mm 0.24 in6.1 mm
02:00 PM 44.4°F6.9°C 41.4°F5.2°C 89% Calm Calm -- 29.71 in1006.1 mb 0.00 in0.0 mm 0.00 in0.0 mm 0.24 in6.1 mm
02:05 PM 44.5°F6.9°C 41.5°F5.3°C 89% Calm Calm -- 29.71 in1006.1 mb 0.00 in0.0 mm 0.00 in0.0 mm 0.24 in6.1 mm
02:10 PM 44.5°F6.9°C 41.5°F5.3°C 89% Calm Calm -- 29.71 in1006.1 mb 0.00 in0.0 mm 0.00 in0.0 mm 0.24 in6.1 mm
02:15 PM 44.6°F7.0°C 41.6°F5.3°C 89% Calm Calm -- 29.71 in1006.1 mb 0.00 in0.0 mm 0.00 in0.0 mm 0.24 in6.1 mm
02:20 PM 44.6°F7.0°C 41.6°F5.3°C 89% Calm Calm -- 29.71 in1006.1 mb 0.00 in0.0 mm 0.00 in0.0 mm 0.24 in6.1 mm
02:25 PM 44.7°F7.1°C 41.7°F5.4°C 89% Calm Calm -- 29.70 in1005.8 mb 0.00 in0.0 mm 0.00 in0.0 mm 0.25 in6.4 mm
02:30 PM 44.7°F7.1°C 41.7°F5.4°C 89% 1.0 mph E1.6 kmh E 2.0 mph3.2 kmh 29.69 in1005.4 mb 0.00 in0.0 mm 0.00 in0.0 mm 0.25 in6.4 mm
02:35 PM 44.7°F7.1°C 41.7°F5.4°C 89% 5.0 mph E8.0 kmh E 5.0 mph8.0 kmh 29.66 in1004.4 mb 0.06 in1.5 mm 0.72 in18.3 mm 0.26 in6.6 mm
02:40 PM 44.6°F7.0°C 41.6°F5.3°C 89% 1.0 mph E1.6 kmh E 7.0 mph11.3 kmh 29.67 in1004.7 mb 0.11 in2.8 mm 0.60 in15.2 mm 0.27 in6.9 mm
02:45 PM 44.6°F7.0°C 41.6°F5.3°C 89% Calm Calm -- 29.67 in1004.7 mb 0.15 in3.8 mm 0.48 in12.2 mm 0.28 in7.1 mm
02:50 PM 44.6°F7.0°C 41.6°F5.3°C 89% 4.0 mph SE6.4 kmh SE 4.0 mph6.4 kmh 29.67 in1004.7 mb 0.12 in3.0 mm 0.00 in0.0 mm 0.29 in7.4 mm
02:55 PM 44.7°F7.1°C 41.7°F5.4°C 89% 1.0 mph SE1.6 kmh SE 4.0 mph6.4 kmh 29.68 in1005.1 mb 0.21 in5.3 mm 1.08 in27.4 mm 0.31 in7.9 mm
03:00 PM 44.9°F7.2°C 41.9°F5.5°C 89% 2.0 mph SE3.2 kmh SE 7.0 mph11.3 kmh 29.68 in1005.1 mb 0.09 in2.3 mm 0.00 in0.0 mm 0.31 in7.9 mm
03:05 PM 45.1°F7.3°C 42.1°F5.6°C 89% Calm Calm 7.0 mph11.3 kmh 29.66 in1004.4 mb 0.09 in2.3 mm 0.00 in0.0 mm 0.32 in8.1 mm
03:10 PM 45.3°F7.4°C 42.3°F5.7°C 89% 1.0 mph S1.6 kmh S 2.0 mph3.2 kmh 29.66 in1004.4 mb 0.07 in1.8 mm 0.00 in0.0 mm 0.33 in8.4 mm
03:15 PM 45.8°F7.7°C 42.7°F5.9°C 89% 8.0 mph SE12.9 kmh SE 9.0 mph14.5 kmh 29.65 in1004.1 mb 0.14 in3.6 mm 0.84 in21.3 mm 0.34 in8.6 mm
03:20 PM 46.8°F8.2°C 43.7°F6.5°C 89% Calm Calm 14.0 mph22.5 kmh 29.64 in1003.7 mb 0.15 in3.8 mm 0.12 in3.0 mm 0.35 in8.9 mm
03:25 PM 47.4°F8.6°C 44.3°F6.8°C 89% 8.0 mph SE12.9 kmh SE 14.0 mph22.5 kmh 29.64 in1003.7 mb 0.11 in2.8 mm 0.00 in0.0 mm 0.36 in9.1 mm
03:30 PM 48.3°F9.1°C 45.2°F7.3°C 89% 7.0 mph SE11.3 kmh SE 16.0 mph25.7 kmh 29.62 in1003.0 mb 0.08 in2.0 mm 0.00 in0.0 mm 0.36 in9.1 mm
03:35 PM 48.7°F9.3°C 45.6°F7.6°C 89% 7.0 mph SSE11.3 kmh SSE 16.0 mph25.7 kmh 29.63 in1003.4 mb 0.05 in1.3 mm 0.00 in0.0 mm 0.36 in9.1 mm
03:40 PM 48.9°F9.4°C 45.8°F7.7°C 89% 5.0 mph SSE8.0 kmh SSE 16.0 mph25.7 kmh 29.61 in1002.7 mb 0.00 in0.0 mm 0.00 in0.0 mm 0.36 in9.1 mm
03:45 PM 49.0°F9.4°C 45.9°F7.7°C 89% 8.0 mph S12.9 kmh S 16.0 mph25.7 kmh 29.60 in1002.4 mb 0.00 in0.0 mm 0.00 in0.0 mm 0.37 in9.4 mm
03:50 PM 49.3°F9.6°C 46.2°F7.9°C 89% 6.0 mph SSE9.7 kmh SSE 12.0 mph19.3 kmh 29.60 in1002.4 mb 0.00 in0.0 mm 0.00 in0.0 mm 0.37 in9.4 mm
03:55 PM 49.7°F9.8°C 46.6°F8.1°C 89% 8.0 mph SSE12.9 kmh SSE 13.0 mph20.9 kmh 29.59 in1002.0 mb 0.00 in0.0 mm 0.00 in0.0 mm 0.37 in9.4 mm
04:00 PM 50.0°F10.0°C 46.9°F8.3°C 89% 8.0 mph SSE12.9 kmh SSE 13.0 mph20.9 kmh 29.60 in1002.4 mb 0.00 in0.0 mm 0.00 in0.0 mm 0.38 in9.7 mm
04:05 PM 50.5°F10.3°C 47.4°F8.6°C 89% 8.0 mph SSE12.9 kmh SSE 14.0 mph22.5 kmh 29.59 in1002.0 mb 0.00 in0.0 mm 0.00 in0.0 mm 0.38 in9.7 mm
04:10 PM 51.1°F10.6°C 48.0°F8.9°C 89% 12.0 mph SSE19.3 kmh SSE 16.0 mph25.7 kmh 29.58 in1001.7 mb 0.06 in1.5 mm 0.72 in18.3 mm 0.39 in9.9 mm
04:15 PM 51.7°F10.9°C 48.5°F9.2°C 89% 8.0 mph SSE12.9 kmh SSE 21.0 mph33.8 kmh 29.56 in1001.0 mb 0.06 in1.5 mm 0.00 in0.0 mm 0.39 in9.9 mm
04:20 PM 52.3°F11.3°C 49.1°F9.5°C 89% 9.0 mph SE14.5 kmh SE 21.0 mph33.8 kmh 29.54 in1000.3 mb 0.23 in5.8 mm 2.04 in51.8 mm 0.41 in10.4 mm
04:25 PM 52.9°F11.6°C 49.7°F9.8°C 89% 6.0 mph SE9.7 kmh SE 21.0 mph33.8 kmh 29.53 in1000.0 mb 0.08 in2.0 mm 0.00 in0.0 mm 0.41 in10.4 mm
04:30 PM 53.3°F11.8°C 50.1°F10.1°C 89% 16.0 mph SSE25.7 kmh SSE 22.0 mph35.4 kmh 29.52 in999.7 mb 0.05 in1.3 mm 0.00 in0.0 mm 0.41 in10.4 mm
04:35 PM 53.7°F12.1°C 50.5°F10.3°C 89% 19.0 mph SSE30.6 kmh SSE 25.0 mph40.2 kmh 29.54 in1000.3 mb 0.00 in0.0 mm 0.00 in0.0 mm 0.41 in10.4 mm
04:40 PM 53.9°F12.2°C 50.7°F10.4°C 89% 5.0 mph S8.0 kmh S 25.0 mph40.2 kmh 29.54 in1000.3 mb 0.00 in0.0 mm 0.00 in0.0 mm 0.41 in10.4 mm
04:45 PM 54.0°F12.2°C 50.8°F10.4°C 89% 8.0 mph SW12.9 kmh SW 25.0 mph40.2 kmh 29.55 in1000.7 mb 0.00 in0.0 mm 0.00 in0.0 mm 0.41 in10.4 mm
04:50 PM 54.2°F12.3°C 51.0°F10.6°C 89% 10.0 mph S16.1 kmh S 25.0 mph40.2 kmh 29.55 in1000.7 mb 0.00 in0.0 mm 0.00 in0.0 mm 0.41 in10.4 mm
04:55 PM 54.3°F12.4°C 51.1°F10.6°C 89% 10.0 mph S16.1 kmh S 17.0 mph27.4 kmh 29.55 in1000.7 mb 0.00 in0.0 mm 0.00 in0.0 mm 0.41 in10.4 mm
05:00 PM 54.4°F12.4°C 51.2°F10.7°C 89% 16.0 mph S25.7 kmh S 22.0 mph35.4 kmh 29.55 in1000.7 mb 0.00 in0.0 mm 0.00 in0.0 mm 0.41 in10.4 mm
05:05 PM 54.5°F12.5°C 51.3°F10.7°C 89% 7.0 mph S11.3 kmh S 22.0 mph35.4 kmh 29.54 in1000.3 mb 0.00 in0.0 mm 0.00 in0.0 mm 0.41 in10.4 mm
05:10 PM 54.6°F12.6°C 51.4°F10.8°C 89% 4.0 mph S6.4 kmh S 22.0 mph35.4 kmh 29.53 in1000.0 mb 0.00 in0.0 mm 0.00 in0.0 mm 0.41 in10.4 mm
05:15 PM 54.6°F12.6°C 51.4°F10.8°C 89% 10.0 mph SSE16.1 kmh SSE 22.0 mph35.4 kmh 29.53 in1000.0 mb 0.00 in0.0 mm 0.00 in0.0 mm 0.41 in10.4 mm
05:20 PM 54.7°F12.6°C 51.5°F10.8°C 89% 6.0 mph SW9.7 kmh SW 14.0 mph22.5 kmh 29.52 in999.7 mb 0.00 in0.0 mm 0.00 in0.0 mm 0.41 in10.4 mm
05:25 PM 54.7°F12.6°C 51.5°F10.8°C 89% 5.0 mph S8.0 kmh S 14.0 mph22.5 kmh 29.52 in999.7 mb 0.00 in0.0 mm 0.00 in0.0 mm 0.41 in10.4 mm
05:30 PM 54.7°F12.6°C 51.5°F10.8°C 89% 9.0 mph SSE14.5 kmh SSE 16.0 mph25.7 kmh 29.51 in999.3 mb 0.00 in0.0 mm 0.00 in0.0 mm 0.41 in10.4 mm
05:35 PM 54.8°F12.7°C 51.6°F10.9°C 89% 5.0 mph SE8.0 kmh SE 18.0 mph29.0 kmh 29.52 in999.7 mb 0.00 in0.0 mm 0.00 in0.0 mm 0.41 in10.4 mm
05:40 PM 54.8°F12.7°C 51.6°F10.9°C 89% 7.0 mph SSE11.3 kmh SSE 18.0 mph29.0 kmh 29.51 in999.3 mb 0.00 in0.0 mm 0.00 in0.0 mm 0.41 in10.4 mm
05:45 PM 54.9°F12.7°C 51.7°F10.9°C 89% 9.0 mph SSE14.5 kmh SSE 18.0 mph29.0 kmh 29.50 in999.0 mb 0.00 in0.0 mm 0.00 in0.0 mm 0.41 in10.4 mm
05:50 PM 54.9°F12.7°C 51.7°F10.9°C 89% 8.0 mph SSE12.9 kmh SSE 18.0 mph29.0 kmh 29.50 in999.0 mb 0.00 in0.0 mm 0.00 in0.0 mm 0.41 in10.4 mm
05:55 PM 54.8°F12.7°C 51.6°F10.9°C 89% 9.0 mph S14.5 kmh S 13.0 mph20.9 kmh 29.50 in999.0 mb 0.00 in0.0 mm 0.00 in0.0 mm 0.41 in10.4 mm
06:00 PM 54.9°F12.7°C 51.7°F10.9°C 89% 7.0 mph SSE11.3 kmh SSE 13.0 mph20.9 kmh 29.50 in999.0 mb 0.00 in0.0 mm 0.00 in0.0 mm 0.41 in10.4 mm
06:05 PM 54.8°F12.7°C 51.6°F10.9°C 89% 5.0 mph SE8.0 kmh SE 12.0 mph19.3 kmh 29.50 in999.0 mb 0.00 in0.0 mm 0.00 in0.0 mm 0.41 in10.4 mm
06:10 PM 54.9°F12.7°C 51.7°F10.9°C 89% 7.0 mph SSE11.3 kmh SSE 12.0 mph19.3 kmh 29.49 in998.6 mb 0.00 in0.0 mm 0.00 in0.0 mm 0.41 in10.4 mm
06:15 PM 54.9°F12.7°C 51.7°F10.9°C 89% 7.0 mph SE11.3 kmh SE 17.0 mph27.4 kmh 29.49 in998.6 mb 0.00 in0.0 mm 0.00 in0.0 mm 0.41 in10.4 mm
06:20 PM 55.0°F12.8°C 51.8°F11.0°C 89% 10.0 mph SW16.1 kmh SW 17.0 mph27.4 kmh 29.49 in998.6 mb 0.00 in0.0 mm 0.00 in0.0 mm 0.41 in10.4 mm
06:25 PM 55.1°F12.8°C 51.9°F11.1°C 89% 7.0 mph SSE11.3 kmh SSE 17.0 mph27.4 kmh 29.48 in998.3 mb 0.00 in0.0 mm 0.00 in0.0 mm 0.41 in10.4 mm
06:30 PM 55.3°F12.9°C 52.1°F11.2°C 89% 9.0 mph SE14.5 kmh SE 17.0 mph27.4 kmh 29.48 in998.3 mb 0.00 in0.0 mm 0.00 in0.0 mm 0.41 in10.4 mm
06:35 PM 55.6°F13.1°C 52.4°F11.3°C 89% 9.0 mph S14.5 kmh S 16.0 mph25.7 kmh 29.48 in998.3 mb 0.00 in0.0 mm 0.00 in0.0 mm 0.41 in10.4 mm
06:40 PM 56.0°F13.3°C 52.8°F11.6°C 89% 8.0 mph SSE12.9 kmh SSE 16.0 mph25.7 kmh 29.48 in998.3 mb 0.00 in0.0 mm 0.00 in0.0 mm 0.41 in10.4 mm
06:45 PM 56.3°F13.5°C 53.1°F11.7°C 89% 15.0 mph SSW24.1 kmh SSW 15.0 mph24.1 kmh 29.47 in998.0 mb 0.00 in0.0 mm 0.00 in0.0 mm 0.41 in10.4 mm
06:50 PM 56.9°F13.8°C 53.3°F11.8°C 88% 10.0 mph SSE16.1 kmh SSE 17.0 mph27.4 kmh 29.48 in998.3 mb 0.00 in0.0 mm 0.00 in0.0 mm 0.41 in10.4 mm
06:55 PM 57.4°F14.1°C 53.5°F11.9°C 87% 13.0 mph S20.9 kmh S 17.0 mph27.4 kmh 29.47 in998.0 mb 0.00 in0.0 mm 0.00 in0.0 mm 0.41 in10.4 mm
07:00 PM 57.8°F14.3°C 53.6°F12.0°C 86% 13.0 mph S20.9 kmh S 20.0 mph32.2 kmh 29.47 in998.0 mb 0.00 in0.0 mm 0.00 in0.0 mm 0.41 in10.4 mm
07:05 PM 58.1°F14.5°C 53.2°F11.8°C 84% 14.0 mph S22.5 kmh S 20.0 mph32.2 kmh 29.47 in998.0 mb 0.00 in0.0 mm 0.00 in0.0 mm 0.41 in10.4 mm
07:10 PM 58.2°F14.6°C 53.0°F11.7°C 83% 13.0 mph SSW20.9 kmh SSW 20.0 mph32.2 kmh 29.48 in998.3 mb 0.00 in0.0 mm 0.00 in0.0 mm 0.41 in10.4 mm
07:15 PM 58.3°F14.6°C 52.7°F11.5°C 82% 15.0 mph S24.1 kmh S 20.0 mph32.2 kmh 29.47 in998.0 mb 0.00 in0.0 mm 0.00 in0.0 mm 0.41 in10.4 mm
07:20 PM 58.4°F14.7°C 52.8°F11.6°C 82% 15.0 mph S24.1 kmh S 19.0 mph30.6 kmh 29.48 in998.3 mb 0.00 in0.0 mm 0.00 in0.0 mm 0.41 in10.4 mm
07:25 PM 58.5°F14.7°C 52.6°F11.4°C 81% 13.0 mph SSE20.9 kmh SSE 19.0 mph30.6 kmh 29.47 in998.0 mb 0.00 in0.0 mm 0.00 in0.0 mm 0.41 in10.4 mm
07:30 PM 58.5°F14.7°C 52.6°F11.4°C 81% 11.0 mph S17.7 kmh S 19.0 mph30.6 kmh 29.47 in998.0 mb 0.00 in0.0 mm 0.00 in0.0 mm 0.41 in10.4 mm
07:35 PM 58.5°F14.7°C 52.6°F11.4°C 81% 12.0 mph S19.3 kmh S 26.0 mph41.8 kmh 29.46 in997.6 mb 0.00 in0.0 mm 0.00 in0.0 mm 0.41 in10.4 mm
07:40 PM 58.5°F14.7°C 52.6°F11.4°C 81% 19.0 mph S30.6 kmh S 26.0 mph41.8 kmh 29.45 in997.3 mb 0.00 in0.0 mm 0.00 in0.0 mm 0.41 in10.4 mm
07:45 PM 58.5°F14.7°C 52.6°F11.4°C 81% 12.0 mph S19.3 kmh S 26.0 mph41.8 kmh 29.46 in997.6 mb 0.00 in0.0 mm 0.00 in0.0 mm 0.41 in10.4 mm
07:50 PM 58.6°F14.8°C 52.7°F11.5°C 81% 17.0 mph S27.4 kmh S 27.0 mph43.5 kmh 29.46 in997.6 mb 0.00 in0.0 mm 0.00 in0.0 mm 0.41 in10.4 mm
07:55 PM 58.8°F14.9°C 52.9°F11.6°C 81% 12.0 mph S19.3 kmh S 27.0 mph43.5 kmh 29.46 in997.6 mb 0.00 in0.0 mm 0.00 in0.0 mm 0.41 in10.4 mm
08:00 PM 59.0°F15.0°C 52.7°F11.5°C 80% 15.0 mph SSW24.1 kmh SSW 27.0 mph43.5 kmh 29.46 in997.6 mb 0.00 in0.0 mm 0.00 in0.0 mm 0.41 in10.4 mm
08:05 PM 59.2°F15.1°C 53.3°F11.8°C 81% 16.0 mph SSE25.7 kmh SSE 27.0 mph43.5 kmh 29.47 in998.0 mb 0.97 in24.6 mm 11.64 in295.7 mm 0.43 in10.9 mm
08:10 PM 58.8°F14.9°C 53.2°F11.8°C 82% 12.0 mph SW19.3 kmh SW 27.0 mph43.5 kmh 29.47 in998.0 mb 0.24 in6.1 mm 0.00 in0.0 mm 0.45 in11.4 mm
08:15 PM 58.3°F14.6°C 53.1°F11.7°C 83% 13.0 mph SW20.9 kmh SW 27.0 mph43.5 kmh 29.47 in998.0 mb 0.10 in2.5 mm 0.00 in0.0 mm 0.45 in11.4 mm
08:20 PM 57.9°F14.4°C 53.0°F11.7°C 84% 16.0 mph SSW25.7 kmh SSW 28.0 mph45.1 kmh 29.47 in998.0 mb 0.06 in1.5 mm 0.00 in0.0 mm 0.45 in11.4 mm
08:25 PM 57.6°F14.2°C 53.1°F11.7°C 85% 8.0 mph S12.9 kmh S 28.0 mph45.1 kmh 29.46 in997.6 mb 0.04 in1.0 mm 0.00 in0.0 mm 0.45 in11.4 mm
08:30 PM 57.5°F14.2°C 53.0°F11.7°C 85% 8.0 mph S12.9 kmh S 28.0 mph45.1 kmh 29.46 in997.6 mb 0.00 in0.0 mm 0.00 in0.0 mm 0.45 in11.4 mm
08:35 PM 57.5°F14.2°C 53.0°F11.7°C 85% 10.0 mph S16.1 kmh S 28.0 mph45.1 kmh 29.46 in997.6 mb 0.00 in0.0 mm 0.00 in0.0 mm 0.45 in11.4 mm
08:40 PM 57.5°F14.2°C 53.0°F11.7°C 85% 11.0 mph S17.7 kmh S 21.0 mph33.8 kmh 29.46 in997.6 mb 0.00 in0.0 mm 0.00 in0.0 mm 0.45 in11.4 mm
08:45 PM 57.5°F14.2°C 53.0°F11.7°C 85% 13.0 mph S20.9 kmh S 22.0 mph35.4 kmh 29.45 in997.3 mb 0.00 in0.0 mm 0.00 in0.0 mm 0.45 in11.4 mm
08:50 PM 57.5°F14.2°C 53.0°F11.7°C 85% 6.0 mph S9.7 kmh S 22.0 mph35.4 kmh 29.45 in997.3 mb 0.00 in0.0 mm 0.00 in0.0 mm 0.45 in11.4 mm
08:55 PM 57.6°F14.2°C 53.1°F11.7°C 85% 13.0 mph SSE20.9 kmh SSE 26.0 mph41.8 kmh 29.45 in997.3 mb 0.00 in0.0 mm 0.00 in0.0 mm 0.45 in11.4 mm
09:00 PM 57.6°F14.2°C 53.1°F11.7°C 85% 9.0 mph S14.5 kmh S 26.0 mph41.8 kmh 29.44 in997.0 mb 0.18 in4.6 mm 0.20 in5.1 mm 0.49 in12.4 mm
09:05 PM 57.4°F14.1°C 52.9°F11.6°C 85% 13.0 mph S20.9 kmh S 26.0 mph41.8 kmh 29.44 in997.0 mb 0.07 in1.8 mm 0.00 in0.0 mm 0.49 in12.4 mm
09:10 PM 57.2°F14.0°C 53.0°F11.7°C 86% 10.0 mph S16.1 kmh S 26.0 mph41.8 kmh 29.44 in997.0 mb 0.04 in1.0 mm 0.00 in0.0 mm 0.49 in12.4 mm
09:15 PM 57.1°F13.9°C 52.9°F11.6°C 86% 10.0 mph S16.1 kmh S 19.0 mph30.6 kmh 29.43 in996.6 mb 0.00 in0.0 mm 0.00 in0.0 mm 0.49 in12.4 mm
09:20 PM 57.0°F13.9°C 52.8°F11.6°C 86% 8.0 mph S12.9 kmh S 19.0 mph30.6 kmh 29.43 in996.6 mb 0.00 in0.0 mm 0.00 in0.0 mm 0.49 in12.4 mm
09:25 PM 56.9°F13.8°C 52.7°F11.5°C 86% 14.0 mph S22.5 kmh S 17.0 mph27.4 kmh 29.43 in996.6 mb 0.00 in0.0 mm 0.00 in0.0 mm 0.49 in12.4 mm
09:30 PM 56.9°F13.8°C 52.7°F11.5°C 86% 13.0 mph S20.9 kmh S 17.0 mph27.4 kmh 29.43 in996.6 mb 0.21 in5.3 mm 2.52 in64.0 mm 0.51 in13.0 mm
09:35 PM 56.8°F13.8°C 52.6°F11.4°C 86% 8.0 mph SW12.9 kmh SW 19.0 mph30.6 kmh 29.43 in996.6 mb 0.08 in2.0 mm 0.00 in0.0 mm 0.51 in13.0 mm
09:40 PM 56.9°F13.8°C 53.0°F11.7°C 87% 5.0 mph WSW8.0 kmh WSW 19.0 mph30.6 kmh 29.46 in997.6 mb 0.06 in1.5 mm 0.00 in0.0 mm 0.52 in13.2 mm
09:45 PM 56.9°F13.8°C 53.0°F11.7°C 87% 7.0 mph S11.3 kmh S 19.0 mph30.6 kmh 29.44 in997.0 mb 0.41 in10.4 mm 4.20 in106.7 mm 0.55 in14.0 mm
09:50 PM 56.8°F13.8°C 52.9°F11.6°C 87% 8.0 mph SW12.9 kmh SW 19.0 mph30.6 kmh 29.44 in997.0 mb 0.20 in5.1 mm 0.00 in0.0 mm 0.58 in14.7 mm
09:55 PM 56.6°F13.7°C 52.7°F11.5°C 87% 11.0 mph S17.7 kmh S 17.0 mph27.4 kmh 29.43 in996.6 mb 0.63 in16.0 mm 5.16 in131.1 mm 0.60 in15.2 mm
10:00 PM 56.5°F13.6°C 52.9°F11.6°C 88% 10.0 mph S16.1 kmh S 17.0 mph27.4 kmh 29.43 in996.6 mb 0.11 in2.8 mm 0.00 in0.0 mm 0.61 in15.5 mm
10:05 PM 56.5°F13.6°C 52.9°F11.6°C 88% 16.0 mph S25.7 kmh S 19.0 mph30.6 kmh 29.42 in996.3 mb 0.43 in10.9 mm 3.84 in97.5 mm 0.64 in16.3 mm
10:10 PM 56.5°F13.6°C 52.9°F11.6°C 88% 9.0 mph SSW14.5 kmh SSW 19.0 mph30.6 kmh 29.42 in996.3 mb 0.10 in2.5 mm 0.00 in0.0 mm 0.64 in16.3 mm
10:15 PM 56.5°F13.6°C 52.9°F11.6°C 88% 10.0 mph S16.1 kmh S 19.0 mph30.6 kmh 29.43 in996.6 mb 0.06 in1.5 mm 0.00 in0.0 mm 0.65 in16.5 mm
10:20 PM 56.6°F13.7°C 53.0°F11.7°C 88% 12.0 mph SW19.3 kmh SW 19.0 mph30.6 kmh 29.43 in996.6 mb 0.21 in5.3 mm 1.80 in45.7 mm 0.66 in16.8 mm
10:25 PM 56.6°F13.7°C 53.0°F11.7°C 88% 13.0 mph S20.9 kmh S 18.0 mph29.0 kmh 29.42 in996.3 mb 0.08 in2.0 mm 0.00 in0.0 mm 0.66 in16.8 mm
10:30 PM 56.6°F13.7°C 53.0°F11.7°C 88% 17.0 mph S27.4 kmh S 22.0 mph35.4 kmh 29.42 in996.3 mb 0.05 in1.3 mm 0.00 in0.0 mm 0.66 in16.8 mm
10:35 PM 56.9°F13.8°C 53.7°F12.1°C 89% 10.0 mph S16.1 kmh S 24.0 mph38.6 kmh 29.41 in995.9 mb 0.04 in1.0 mm 0.00 in0.0 mm 0.67 in17.0 mm
10:40 PM 57.2°F14.0°C 54.0°F12.2°C 89% 16.0 mph S25.7 kmh S 24.0 mph38.6 kmh 29.41 in995.9 mb 0.25 in6.4 mm 2.52 in64.0 mm 0.69 in17.5 mm
10:45 PM 57.4°F14.1°C 54.1°F12.3°C 89% 15.0 mph SSW24.1 kmh SSW 24.0 mph38.6 kmh 29.41 in995.9 mb 0.11 in2.8 mm 0.00 in0.0 mm 0.69 in17.5 mm
10:50 PM 57.6°F14.2°C 54.3°F12.4°C 89% 13.0 mph S20.9 kmh S 24.0 mph38.6 kmh 29.40 in995.6 mb 0.07 in1.8 mm 0.00 in0.0 mm 0.70 in17.8 mm
10:55 PM 57.9°F14.4°C 54.6°F12.6°C 89% 15.0 mph S24.1 kmh S 23.0 mph37.0 kmh 29.39 in995.3 mb 0.18 in4.6 mm 1.32 in33.5 mm 0.71 in18.0 mm
11:00 PM 58.1°F14.5°C 54.8°F12.7°C 89% 19.0 mph S30.6 kmh S 28.0 mph45.1 kmh 29.39 in995.3 mb 0.07 in1.8 mm 0.00 in0.0 mm 4.23 in107.4 mm
11:05 PM 58.3°F14.6°C 55.0°F12.8°C 89% 25.0 mph S40.2 kmh S 28.0 mph45.1 kmh 29.39 in995.3 mb 0.06 in1.5 mm 0.00 in0.0 mm 4.23 in107.4 mm
11:10 PM 58.5°F14.7°C 55.2°F12.9°C 89% 17.0 mph SSW27.4 kmh SSW 28.0 mph45.1 kmh 29.38 in994.9 mb 0.06 in1.5 mm 0.00 in0.0 mm 4.23 in107.4 mm
11:15 PM 58.7°F14.8°C 55.4°F13.0°C 89% 13.0 mph SW20.9 kmh SW 28.0 mph45.1 kmh 29.37 in994.6 mb 0.06 in1.5 mm 0.00 in0.0 mm 4.23 in107.4 mm
11:20 PM 58.8°F14.9°C 55.5°F13.1°C 89% 13.0 mph S20.9 kmh S 22.0 mph35.4 kmh 29.37 in994.6 mb 0.06 in1.5 mm 0.00 in0.0 mm 4.23 in107.4 mm
11:25 PM 59.0°F15.0°C 55.4°F13.0°C 88% 7.0 mph SSW11.3 kmh SSW 22.0 mph35.4 kmh 29.38 in994.9 mb 0.05 in1.3 mm 0.00 in0.0 mm 4.23 in107.4 mm
11:30 PM 59.2°F15.1°C 55.6°F13.1°C 88% 15.0 mph SW24.1 kmh SW 19.0 mph30.6 kmh 29.38 in994.9 mb 0.00 in0.0 mm 0.00 in0.0 mm 4.23 in107.4 mm
11:35 PM 59.2°F15.1°C 55.6°F13.1°C 88% 16.0 mph S25.7 kmh S 19.0 mph30.6 kmh 29.38 in994.9 mb 0.00 in0.0 mm 0.00 in0.0 mm 4.23 in107.4 mm
11:40 PM 59.2°F15.1°C 55.6°F13.1°C 88% 9.0 mph SSW14.5 kmh SSW 22.0 mph35.4 kmh 29.37 in994.6 mb 0.00 in0.0 mm 0.00 in0.0 mm 4.23 in107.4 mm
11:45 PM 59.3°F15.2°C 55.7°F13.2°C 88% 13.0 mph S20.9 kmh S 22.0 mph35.4 kmh 29.37 in994.6 mb 0.00 in0.0 mm 0.00 in0.0 mm 4.23 in107.4 mm
11:50 PM 59.3°F15.2°C 55.7°F13.2°C 88% 14.0 mph SSE22.5 kmh SSE 22.0 mph35.4 kmh 29.37 in994.6 mb 0.00 in0.0 mm 0.00 in0.0 mm 4.23 in107.4 mm
11:55 PM 59.3°F15.2°C 55.7°F13.2°C 88% 9.0 mph SSE14.5 kmh SSE 22.0 mph35.4 kmh 29.37 in994.6 mb 0.00 in0.0 mm 0.00 in0.0 mm 4.23 in107.4 mm